Nunapitchuk, Alaska
Current Conditions -  °F | °C
As of 1:56 PM on Thursday 20 Nov 2014 (Local Time) from PPIT Reporting Station
Overcast Overcast  
Wind Chill: 19°   Ceiling: 7000
Heat Index: 32°   Visibility: 10mi
Dew Point: 27°   Wind: 23mph
Humidity: 82%   Direction: 50°NE
Pressure: 29.02"   Gusts: 30mph
Location:  60.9°N, 162.46°W
Report Text: PPIT 202256Z AUTO 05020G26KT 10SM BKN070 OVC085 00/M03 A2902 RMK AO2 PK WND 05027/2202 SLP828 T00001028 FZRANO
Loading
Personal Weather Stations






























Interactive Weather Map New forecast layout! Learn more

10-Day Weather Forecast

Advertisements
Track Severe Weather on mobile